sensor_id;sensor_type;location;lat;lon;timestamp;P1;durP1;ratioP1;P2;durP2;ratioP2
10637;SDS011;47007;49.252;8.904;2022-10-17T00:00:43;5.10;;;2.72;;
10637;SDS011;47007;49.252;8.904;2022-10-17T00:03:10;2.35;;;2.15;;
10637;SDS011;47007;49.252;8.904;2022-10-17T00:05:44;4.88;;;2.25;;
10637;SDS011;47007;49.252;8.904;2022-10-17T00:08:13;4.22;;;2.92;;
10637;SDS011;47007;49.252;8.904;2022-10-17T00:10:42;4.57;;;3.33;;
10637;SDS011;47007;49.252;8.904;2022-10-17T00:13:09;5.85;;;3.97;;
10637;SDS011;47007;49.252;8.904;2022-10-17T00:15:37;4.60;;;4.15;;
10637;SDS011;47007;49.252;8.904;2022-10-17T00:18:04;3.03;;;2.55;;
10637;SDS011;47007;49.252;8.904;2022-10-17T00:20:33;6.40;;;3.40;;
10637;SDS011;47007;49.252;8.904;2022-10-17T00:23:00;2.42;;;2.15;;
10637;SDS011;47007;49.252;8.904;2022-10-17T00:25:27;7.25;;;3.42;;
10637;SDS011;47007;49.252;8.904;2022-10-17T00:27:54;2.95;;;2.33;;
10637;SDS011;47007;49.252;8.904;2022-10-17T00:30:21;2.22;;;2.00;;
10637;SDS011;47007;49.252;8.904;2022-10-17T00:32:47;4.30;;;2.60;;
10637;SDS011;47007;49.252;8.904;2022-10-17T00:35:14;7.40;;;4.20;;
10637;SDS011;47007;49.252;8.904;2022-10-17T00:37:41;3.85;;;3.03;;
10637;SDS011;47007;49.252;8.904;2022-10-17T00:40:08;4.68;;;3.65;;
10637;SDS011;47007;49.252;8.904;2022-10-17T00:42:35;5.93;;;2.95;;
10637;SDS011;47007;49.252;8.904;2022-10-17T00:45:05;3.40;;;3.10;;
10637;SDS011;47007;49.252;8.904;2022-10-17T00:47:34;3.40;;;2.78;;
10637;SDS011;47007;49.252;8.904;2022-10-17T00:50:02;4.15;;;2.60;;
10637;SDS011;47007;49.252;8.904;2022-10-17T00:52:32;3.13;;;2.70;;
10637;SDS011;47007;49.252;8.904;2022-10-17T00:55:01;3.95;;;3.22;;
10637;SDS011;47007;49.252;8.904;2022-10-17T00:57:34;6.15;;;5.10;;
10637;SDS011;47007;49.252;8.904;2022-10-17T01:00:02;9.18;;;5.60;;
10637;SDS011;47007;49.252;8.904;2022-10-17T01:02:33;6.10;;;4.22;;
10637;SDS011;47007;49.252;8.904;2022-10-17T01:05:00;7.20;;;6.07;;
10637;SDS011;47007;49.252;8.904;2022-10-17T01:07:28;6.88;;;5.30;;
10637;SDS011;47007;49.252;8.904;2022-10-17T01:10:02;12.05;;;7.05;;
10637;SDS011;47007;49.252;8.904;2022-10-17T01:18:06;8.48;;;6.18;;
10637;SDS011;47007;49.252;8.904;2022-10-17T01:35:09;6.07;;;5.40;;
10637;SDS011;47007;49.252;8.904;2022-10-17T01:43:15;5.13;;;4.63;;
10637;SDS011;47007;49.252;8.904;2022-10-17T01:45:50;5.90;;;4.45;;
10637;SDS011;47007;49.252;8.904;2022-10-17T01:48:23;4.72;;;4.22;;
10637;SDS011;47007;49.252;8.904;2022-10-17T01:50:59;4.00;;;3.60;;
10637;SDS011;47007;49.252;8.904;2022-10-17T01:53:32;5.03;;;3.40;;
10637;SDS011;47007;49.252;8.904;2022-10-17T01:56:02;5.20;;;3.17;;
10637;SDS011;47007;49.252;8.904;2022-10-17T01:58:38;6.50;;;3.08;;
10637;SDS011;47007;49.252;8.904;2022-10-17T02:01:09;3.92;;;2.67;;
10637;SDS011;47007;49.252;8.904;2022-10-17T02:03:38;3.50;;;2.90;;
10637;SDS011;47007;49.252;8.904;2022-10-17T02:06:08;4.10;;;2.60;;
10637;SDS011;47007;49.252;8.904;2022-10-17T02:08:39;3.70;;;2.38;;
10637;SDS011;47007;49.252;8.904;2022-10-17T02:11:17;2.92;;;2.28;;
10637;SDS011;47007;49.252;8.904;2022-10-17T02:16:42;4.97;;;2.78;;
10637;SDS011;47007;49.252;8.904;2022-10-17T02:22:15;4.90;;;3.33;;
10637;SDS011;47007;49.252;8.904;2022-10-17T02:24:45;3.78;;;2.42;;
10637;SDS011;47007;49.252;8.904;2022-10-17T02:27:16;2.72;;;2.42;;
10637;SDS011;47007;49.252;8.904;2022-10-17T02:29:53;3.53;;;2.17;;
10637;SDS011;47007;49.252;8.904;2022-10-17T02:32:47;4.03;;;2.70;;
10637;SDS011;47007;49.252;8.904;2022-10-17T02:35:29;2.80;;;2.60;;
10637;SDS011;47007;49.252;8.904;2022-10-17T02:37:58;3.90;;;2.60;;
10637;SDS011;47007;49.252;8.904;2022-10-17T02:40:26;5.03;;;3.13;;
10637;SDS011;47007;49.252;8.904;2022-10-17T02:42:56;6.55;;;3.08;;
10637;SDS011;47007;49.252;8.904;2022-10-17T02:45:27;7.20;;;3.28;;
10637;SDS011;47007;49.252;8.904;2022-10-17T02:50:42;4.95;;;3.55;;
10637;SDS011;47007;49.252;8.904;2022-10-17T02:53:19;7.13;;;3.58;;
10637;SDS011;47007;49.252;8.904;2022-10-17T02:55:53;4.97;;;3.47;;
10637;SDS011;47007;49.252;8.904;2022-10-17T02:58:26;4.38;;;2.97;;
10637;SDS011;47007;49.252;8.904;2022-10-17T03:00:59;3.65;;;2.60;;
10637;SDS011;47007;49.252;8.904;2022-10-17T03:03:28;3.35;;;2.45;;
10637;SDS011;47007;49.252;8.904;2022-10-17T03:06:00;4.45;;;2.90;;
10637;SDS011;47007;49.252;8.904;2022-10-17T03:08:26;2.35;;;2.00;;
10637;SDS011;47007;49.252;8.904;2022-10-17T03:10:54;2.50;;;2.22;;
10637;SDS011;47007;49.252;8.904;2022-10-17T03:13:22;3.53;;;3.10;;
10637;SDS011;47007;49.252;8.904;2022-10-17T03:15:48;3.15;;;2.40;;
10637;SDS011;47007;49.252;8.904;2022-10-17T03:18:15;3.55;;;2.83;;
10637;SDS011;47007;49.252;8.904;2022-10-17T03:20:43;5.13;;;3.08;;
10637;SDS011;47007;49.252;8.904;2022-10-17T03:23:10;4.18;;;2.95;;
10637;SDS011;47007;49.252;8.904;2022-10-17T03:25:37;4.65;;;2.65;;
10637;SDS011;47007;49.252;8.904;2022-10-17T03:28:04;3.15;;;2.65;;
10637;SDS011;47007;49.252;8.904;2022-10-17T03:30:31;3.13;;;2.53;;
10637;SDS011;47007;49.252;8.904;2022-10-17T03:32:59;4.35;;;2.92;;
10637;SDS011;47007;49.252;8.904;2022-10-17T03:35:26;7.65;;;3.20;;
10637;SDS011;47007;49.252;8.904;2022-10-17T03:37:54;4.15;;;3.20;;
10637;SDS011;47007;49.252;8.904;2022-10-17T03:40:22;6.05;;;3.35;;
10637;SDS011;47007;49.252;8.904;2022-10-17T03:42:48;3.83;;;2.75;;
10637;SDS011;47007;49.252;8.904;2022-10-17T03:45:15;3.05;;;2.72;;
10637;SDS011;47007;49.252;8.904;2022-10-17T03:47:43;4.28;;;2.95;;
10637;SDS011;47007;49.252;8.904;2022-10-17T03:50:09;2.83;;;2.63;;
10637;SDS011;47007;49.252;8.904;2022-10-17T03:52:37;2.42;;;2.22;;
10637;SDS011;47007;49.252;8.904;2022-10-17T03:55:04;3.60;;;2.70;;
10637;SDS011;47007;49.252;8.904;2022-10-17T03:57:33;2.72;;;2.53;;
10637;SDS011;47007;49.252;8.904;2022-10-17T04:00:00;3.35;;;2.55;;
10637;SDS011;47007;49.252;8.904;2022-10-17T04:02:28;2.67;;;2.47;;
10637;SDS011;47007;49.252;8.904;2022-10-17T04:04:56;2.97;;;2.60;;
10637;SDS011;47007;49.252;8.904;2022-10-17T04:07:22;4.40;;;2.88;;
10637;SDS011;47007;49.252;8.904;2022-10-17T04:09:49;3.38;;;3.08;;
10637;SDS011;47007;49.252;8.904;2022-10-17T04:12:18;5.30;;;3.30;;
10637;SDS011;47007;49.252;8.904;2022-10-17T04:14:45;4.28;;;2.80;;
10637;SDS011;47007;49.252;8.904;2022-10-17T04:17:13;3.97;;;3.58;;
10637;SDS011;47007;49.252;8.904;2022-10-17T04:19:39;4.20;;;3.50;;
10637;SDS011;47007;49.252;8.904;2022-10-17T04:22:07;5.00;;;3.47;;
10637;SDS011;47007;49.252;8.904;2022-10-17T04:24:36;4.25;;;3.33;;
10637;SDS011;47007;49.252;8.904;2022-10-17T04:27:22;6.85;;;3.17;;
10637;SDS011;47007;49.252;8.904;2022-10-17T04:29:49;4.75;;;3.70;;
10637;SDS011;47007;49.252;8.904;2022-10-17T04:32:23;5.68;;;3.15;;
10637;SDS011;47007;49.252;8.904;2022-10-17T04:34:59;3.90;;;3.00;;
10637;SDS011;47007;49.252;8.904;2022-10-17T04:37:27;3.13;;;2.92;;
10637;SDS011;47007;49.252;8.904;2022-10-17T04:39:56;3.20;;;3.00;;
10637;SDS011;47007;49.252;8.904;2022-10-17T04:42:22;4.85;;;3.17;;
10637;SDS011;47007;49.252;8.904;2022-10-17T04:44:51;4.57;;;3.22;;
10637;SDS011;47007;49.252;8.904;2022-10-17T04:47:20;3.30;;;3.10;;
10637;SDS011;47007;49.252;8.904;2022-10-17T04:49:47;3.85;;;3.00;;
10637;SDS011;47007;49.252;8.904;2022-10-17T04:52:15;5.88;;;3.53;;
10637;SDS011;47007;49.252;8.904;2022-10-17T04:54:43;3.70;;;3.38;;
10637;SDS011;47007;49.252;8.904;2022-10-17T04:57:12;3.45;;;3.15;;
10637;SDS011;47007;49.252;8.904;2022-10-17T04:59:40;3.58;;;3.28;;
10637;SDS011;47007;49.252;8.904;2022-10-17T05:02:19;4.93;;;3.42;;
10637;SDS011;47007;49.252;8.904;2022-10-17T05:04:46;4.15;;;3.60;;
10637;SDS011;47007;49.252;8.904;2022-10-17T05:07:14;5.05;;;4.55;;
10637;SDS011;47007;49.252;8.904;2022-10-17T05:09:43;4.82;;;4.43;;
10637;SDS011;47007;49.252;8.904;2022-10-17T05:12:10;5.43;;;3.70;;
10637;SDS011;47007;49.252;8.904;2022-10-17T05:14:41;5.28;;;3.55;;
10637;SDS011;47007;49.252;8.904;2022-10-17T05:17:07;3.60;;;3.30;;
10637;SDS011;47007;49.252;8.904;2022-10-17T05:19:35;3.22;;;2.92;;
10637;SDS011;47007;49.252;8.904;2022-10-17T05:22:03;5.50;;;2.65;;
10637;SDS011;47007;49.252;8.904;2022-10-17T05:24:30;3.70;;;3.08;;
10637;SDS011;47007;49.252;8.904;2022-10-17T05:26:56;3.55;;;2.80;;
10637;SDS011;47007;49.252;8.904;2022-10-17T05:29:23;3.03;;;2.60;;
10637;SDS011;47007;49.252;8.904;2022-10-17T05:31:58;5.47;;;4.40;;
10637;SDS011;47007;49.252;8.904;2022-10-17T05:34:25;4.18;;;3.28;;
10637;SDS011;47007;49.252;8.904;2022-10-17T05:36:52;3.80;;;3.03;;
10637;SDS011;47007;49.252;8.904;2022-10-17T05:39:21;3.20;;;2.58;;
10637;SDS011;47007;49.252;8.904;2022-10-17T05:41:49;5.65;;;3.30;;
10637;SDS011;47007;49.252;8.904;2022-10-17T05:44:17;5.38;;;3.05;;
10637;SDS011;47007;49.252;8.904;2022-10-17T05:46:51;6.63;;;3.72;;
10637;SDS011;47007;49.252;8.904;2022-10-17T05:49:17;7.38;;;6.28;;
10637;SDS011;47007;49.252;8.904;2022-10-17T05:51:59;6.15;;;5.22;;
10637;SDS011;47007;49.252;8.904;2022-10-17T05:54:31;5.90;;;5.38;;
10637;SDS011;47007;49.252;8.904;2022-10-17T05:56:59;6.60;;;5.90;;
10637;SDS011;47007;49.252;8.904;2022-10-17T05:59:29;5.35;;;4.82;;
10637;SDS011;47007;49.252;8.904;2022-10-17T06:02:01;4.28;;;3.80;;
10637;SDS011;47007;49.252;8.904;2022-10-17T06:04:29;4.38;;;3.67;;
10637;SDS011;47007;49.252;8.904;2022-10-17T06:06:55;12.45;;;11.38;;
10637;SDS011;47007;49.252;8.904;2022-10-17T06:09:22;4.70;;;4.30;;
10637;SDS011;47007;49.252;8.904;2022-10-17T06:11:52;4.20;;;3.80;;
10637;SDS011;47007;49.252;8.904;2022-10-17T06:14:19;6.18;;;5.22;;
10637;SDS011;47007;49.252;8.904;2022-10-17T06:16:49;5.68;;;4.63;;
10637;SDS011;47007;49.252;8.904;2022-10-17T06:19:16;5.20;;;4.70;;
10637;SDS011;47007;49.252;8.904;2022-10-17T06:21:44;8.85;;;6.28;;
10637;SDS011;47007;49.252;8.904;2022-10-17T06:24:14;7.07;;;6.40;;
10637;SDS011;47007;49.252;8.904;2022-10-17T06:26:41;10.63;;;7.32;;
10637;SDS011;47007;49.252;8.904;2022-10-17T06:29:11;9.63;;;7.53;;
10637;SDS011;47007;49.252;8.904;2022-10-17T06:31:49;7.90;;;6.88;;
10637;SDS011;47007;49.252;8.904;2022-10-17T06:34:17;7.43;;;5.65;;
10637;SDS011;47007;49.252;8.904;2022-10-17T06:36:44;5.20;;;4.70;;
10637;SDS011;47007;49.252;8.904;2022-10-17T06:39:11;5.80;;;4.68;;
10637;SDS011;47007;49.252;8.904;2022-10-17T06:41:57;4.65;;;3.65;;
10637;SDS011;47007;49.252;8.904;2022-10-17T06:44:37;6.10;;;4.60;;
10637;SDS011;47007;49.252;8.904;2022-10-17T06:47:28;4.53;;;3.90;;
10637;SDS011;47007;49.252;8.904;2022-10-17T06:49:58;5.95;;;5.35;;
10637;SDS011;47007;49.252;8.904;2022-10-17T06:52:33;8.05;;;5.28;;
10637;SDS011;47007;49.252;8.904;2022-10-17T06:55:30;9.80;;;7.68;;
10637;SDS011;47007;49.252;8.904;2022-10-17T06:58:19;8.23;;;7.43;;
10637;SDS011;47007;49.252;8.904;2022-10-17T07:01:06;8.70;;;7.82;;
10637;SDS011;47007;49.252;8.904;2022-10-17T07:03:41;9.20;;;8.20;;
10637;SDS011;47007;49.252;8.904;2022-10-17T07:06:10;11.88;;;8.07;;
10637;SDS011;47007;49.252;8.904;2022-10-17T07:08:42;11.68;;;10.48;;
10637;SDS011;47007;49.252;8.904;2022-10-17T07:11:15;11.27;;;10.10;;
10637;SDS011;47007;49.252;8.904;2022-10-17T07:13:44;10.75;;;9.75;;
10637;SDS011;47007;49.252;8.904;2022-10-17T07:16:11;16.50;;;14.80;;
10637;SDS011;47007;49.252;8.904;2022-10-17T07:18:40;17.08;;;11.88;;
10637;SDS011;47007;49.252;8.904;2022-10-17T07:21:07;11.35;;;9.88;;
10637;SDS011;47007;49.252;8.904;2022-10-17T07:23:36;9.07;;;8.18;;
10637;SDS011;47007;49.252;8.904;2022-10-17T07:26:05;9.55;;;7.38;;
10637;SDS011;47007;49.252;8.904;2022-10-17T07:28:39;9.18;;;6.75;;
10637;SDS011;47007;49.252;8.904;2022-10-17T07:31:24;8.98;;;7.25;;
10637;SDS011;47007;49.252;8.904;2022-10-17T07:33:51;6.20;;;5.60;;
10637;SDS011;47007;49.252;8.904;2022-10-17T07:36:18;6.43;;;5.82;;
10637;SDS011;47007;49.252;8.904;2022-10-17T07:38:45;9.65;;;7.53;;
10637;SDS011;47007;49.252;8.904;2022-10-17T07:41:12;22.23;;;17.83;;
10637;SDS011;47007;49.252;8.904;2022-10-17T07:43:46;29.30;;;21.42;;
10637;SDS011;47007;49.252;8.904;2022-10-17T07:46:14;48.13;;;34.05;;
10637;SDS011;47007;49.252;8.904;2022-10-17T07:48:42;24.48;;;18.10;;
10637;SDS011;47007;49.252;8.904;2022-10-17T07:51:09;14.00;;;9.40;;
10637;SDS011;47007;49.252;8.904;2022-10-17T07:53:36;10.05;;;7.50;;
10637;SDS011;47007;49.252;8.904;2022-10-17T07:56:07;5.57;;;3.50;;
10637;SDS011;47007;49.252;8.904;2022-10-17T07:58:35;8.88;;;7.88;;
10637;SDS011;47007;49.252;8.904;2022-10-17T08:01:04;10.30;;;9.30;;
10637;SDS011;47007;49.252;8.904;2022-10-17T08:03:42;13.55;;;11.82;;
10637;SDS011;47007;49.252;8.904;2022-10-17T08:06:09;12.10;;;11.00;;
10637;SDS011;47007;49.252;8.904;2022-10-17T08:08:36;13.88;;;11.50;;
10637;SDS011;47007;49.252;8.904;2022-10-17T08:11:04;10.07;;;8.68;;
10637;SDS011;47007;49.252;8.904;2022-10-17T08:13:32;7.15;;;6.55;;
10637;SDS011;47007;49.252;8.904;2022-10-17T08:16:00;7.43;;;6.32;;
10637;SDS011;47007;49.252;8.904;2022-10-17T08:18:28;6.55;;;5.88;;
10637;SDS011;47007;49.252;8.904;2022-10-17T08:20:59;6.70;;;6.10;;
10637;SDS011;47007;49.252;8.904;2022-10-17T08:23:26;6.80;;;6.18;;
10637;SDS011;47007;49.252;8.904;2022-10-17T08:25:53;5.95;;;5.22;;
10637;SDS011;47007;49.252;8.904;2022-10-17T08:28:23;4.72;;;4.32;;
10637;SDS011;47007;49.252;8.904;2022-10-17T08:30:50;8.20;;;4.60;;
10637;SDS011;47007;49.252;8.904;2022-10-17T08:33:17;5.85;;;4.68;;
10637;SDS011;47007;49.252;8.904;2022-10-17T08:35:44;5.95;;;5.35;;
10637;SDS011;47007;49.252;8.904;2022-10-17T08:38:10;6.55;;;4.88;;
10637;SDS011;47007;49.252;8.904;2022-10-17T08:40:39;5.85;;;4.97;;
10637;SDS011;47007;49.252;8.904;2022-10-17T08:46:11;5.35;;;4.85;;
10637;SDS011;47007;49.252;8.904;2022-10-17T08:48:39;3.70;;;3.40;;
10637;SDS011;47007;49.252;8.904;2022-10-17T08:51:19;5.35;;;4.20;;
10637;SDS011;47007;49.252;8.904;2022-10-17T08:53:51;4.43;;;3.05;;
10637;SDS011;47007;49.252;8.904;2022-10-17T08:56:44;5.30;;;3.35;;
10637;SDS011;47007;49.252;8.904;2022-10-17T08:59:28;4.63;;;3.55;;
10637;SDS011;47007;49.252;8.904;2022-10-17T09:02:03;5.88;;;5.30;;
10637;SDS011;47007;49.252;8.904;2022-10-17T09:18:59;4.55;;;2.13;;
10637;SDS011;47007;49.252;8.904;2022-10-17T09:21:35;4.82;;;1.52;;
10637;SDS011;47007;49.252;8.904;2022-10-17T09:24:10;2.58;;;1.15;;
10637;SDS011;47007;49.252;8.904;2022-10-17T09:26:42;3.17;;;1.42;;
10637;SDS011;47007;49.252;8.904;2022-10-17T09:29:16;2.47;;;1.10;;
10637;SDS011;47007;49.252;8.904;2022-10-17T09:31:49;3.63;;;1.20;;
10637;SDS011;47007;49.252;8.904;2022-10-17T09:34:27;3.22;;;2.30;;
10637;SDS011;47007;49.252;8.904;2022-10-17T09:36:57;2.65;;;1.40;;
10637;SDS011;47007;49.252;8.904;2022-10-17T09:39:25;5.55;;;2.00;;
10637;SDS011;47007;49.252;8.904;2022-10-17T09:41:55;1.83;;;1.42;;
10637;SDS011;47007;49.252;8.904;2022-10-17T09:49:41;3.10;;;1.23;;
10637;SDS011;47007;49.252;8.904;2022-10-17T09:52:11;4.00;;;0.90;;
10637;SDS011;47007;49.252;8.904;2022-10-17T09:54:58;2.88;;;1.27;;
10637;SDS011;47007;49.252;8.904;2022-10-17T09:57:57;2.80;;;1.50;;
10637;SDS011;47007;49.252;8.904;2022-10-17T10:00:27;4.35;;;1.30;;
10637;SDS011;47007;49.252;8.904;2022-10-17T10:03:08;4.40;;;1.88;;
10637;SDS011;47007;49.252;8.904;2022-10-17T10:05:35;3.33;;;1.65;;
10637;SDS011;47007;49.252;8.904;2022-10-17T10:08:03;1.45;;;1.30;;
10637;SDS011;47007;49.252;8.904;2022-10-17T10:10:36;2.53;;;1.75;;
10637;SDS011;47007;49.252;8.904;2022-10-17T10:13:18;3.00;;;1.30;;
10637;SDS011;47007;49.252;8.904;2022-10-17T10:15:48;2.55;;;1.23;;
10637;SDS011;47007;49.252;8.904;2022-10-17T10:23:43;2.78;;;1.60;;
10637;SDS011;47007;49.252;8.904;2022-10-17T10:26:17;4.45;;;1.77;;
10637;SDS011;47007;49.252;8.904;2022-10-17T10:28:52;2.20;;;1.50;;
10637;SDS011;47007;49.252;8.904;2022-10-17T10:31:26;2.60;;;1.45;;
10637;SDS011;47007;49.252;8.904;2022-10-17T10:33:56;6.72;;;1.60;;
10637;SDS011;47007;49.252;8.904;2022-10-17T10:36:24;1.58;;;1.33;;
10637;SDS011;47007;49.252;8.904;2022-10-17T10:38:55;1.52;;;1.42;;
10637;SDS011;47007;49.252;8.904;2022-10-17T10:41:29;2.90;;;1.25;;
10637;SDS011;47007;49.252;8.904;2022-10-17T10:44:12;1.48;;;1.33;;
10637;SDS011;47007;49.252;8.904;2022-10-17T10:46:40;2.22;;;1.30;;
10637;SDS011;47007;49.252;8.904;2022-10-17T10:49:23;3.70;;;1.27;;
10637;SDS011;47007;49.252;8.904;2022-10-17T10:51:54;1.80;;;0.90;;
10637;SDS011;47007;49.252;8.904;2022-10-17T10:54:31;3.22;;;1.20;;
10637;SDS011;47007;49.252;8.904;2022-10-17T10:57:09;2.08;;;1.10;;
10637;SDS011;47007;49.252;8.904;2022-10-17T11:05:54;1.85;;;1.20;;
10637;SDS011;47007;49.252;8.904;2022-10-17T11:11:22;2.10;;;1.90;;
10637;SDS011;47007;49.252;8.904;2022-10-17T11:14:15;3.20;;;1.40;;
10637;SDS011;47007;49.252;8.904;2022-10-17T11:16:51;3.15;;;1.63;;
10637;SDS011;47007;49.252;8.904;2022-10-17T11:22:31;1.83;;;1.33;;
10637;SDS011;47007;49.252;8.904;2022-10-17T11:25:05;3.88;;;1.10;;
10637;SDS011;47007;49.252;8.904;2022-10-17T11:27:43;3.47;;;1.50;;
10637;SDS011;47007;49.252;8.904;2022-10-17T11:30:13;1.95;;;0.90;;
10637;SDS011;47007;49.252;8.904;2022-10-17T11:32:44;4.82;;;1.58;;
10637;SDS011;47007;49.252;8.904;2022-10-17T11:38:15;4.47;;;1.45;;
10637;SDS011;47007;49.252;8.904;2022-10-17T11:40:50;3.25;;;1.40;;
10637;SDS011;47007;49.252;8.904;2022-10-17T11:43:27;3.00;;;1.20;;
10637;SDS011;47007;49.252;8.904;2022-10-17T11:45:55;3.60;;;1.42;;
10637;SDS011;47007;49.252;8.904;2022-10-17T11:48:38;1.67;;;1.27;;
10637;SDS011;47007;49.252;8.904;2022-10-17T11:51:14;3.85;;;1.42;;
10637;SDS011;47007;49.252;8.904;2022-10-17T11:54:02;3.25;;;2.03;;
10637;SDS011;47007;49.252;8.904;2022-10-17T11:56:37;2.67;;;1.17;;
10637;SDS011;47007;49.252;8.904;2022-10-17T12:02:17;2.38;;;1.23;;
10637;SDS011;47007;49.252;8.904;2022-10-17T12:05:10;2.45;;;1.23;;
10637;SDS011;47007;49.252;8.904;2022-10-17T12:08:04;5.07;;;1.40;;
10637;SDS011;47007;49.252;8.904;2022-10-17T12:15:54;3.88;;;1.00;;
10637;SDS011;47007;49.252;8.904;2022-10-17T12:18:24;8.43;;;1.40;;
10637;SDS011;47007;49.252;8.904;2022-10-17T12:20:55;3.65;;;1.10;;
10637;SDS011;47007;49.252;8.904;2022-10-17T12:23:27;2.38;;;1.23;;
10637;SDS011;47007;49.252;8.904;2022-10-17T12:26:00;3.00;;;1.30;;
10637;SDS011;47007;49.252;8.904;2022-10-17T12:38:44;3.95;;;1.30;;
10637;SDS011;47007;49.252;8.904;2022-10-17T12:41:15;2.00;;;0.93;;
10637;SDS011;47007;49.252;8.904;2022-10-17T12:52:04;4.30;;;1.30;;
10637;SDS011;47007;49.252;8.904;2022-10-17T12:54:36;1.75;;;1.00;;
10637;SDS011;47007;49.252;8.904;2022-10-17T13:02:51;2.80;;;1.10;;
10637;SDS011;47007;49.252;8.904;2022-10-17T13:05:36;2.67;;;1.10;;
10637;SDS011;47007;49.252;8.904;2022-10-17T13:08:05;2.30;;;0.80;;
10637;SDS011;47007;49.252;8.904;2022-10-17T13:10:40;2.65;;;1.25;;
10637;SDS011;47007;49.252;8.904;2022-10-17T13:15:50;1.25;;;1.00;;
10637;SDS011;47007;49.252;8.904;2022-10-17T13:18:21;3.42;;;1.27;;
10637;SDS011;47007;49.252;8.904;2022-10-17T13:20:54;2.70;;;1.30;;
10637;SDS011;47007;49.252;8.904;2022-10-17T13:23:24;1.63;;;1.10;;
10637;SDS011;47007;49.252;8.904;2022-10-17T13:26:04;4.07;;;1.33;;
10637;SDS011;47007;49.252;8.904;2022-10-17T13:28:33;3.00;;;1.20;;
10637;SDS011;47007;49.252;8.904;2022-10-17T13:31:05;1.13;;;0.85;;
10637;SDS011;47007;49.252;8.904;2022-10-17T13:36:02;1.17;;;1.00;;
10637;SDS011;47007;49.252;8.904;2022-10-17T13:38:33;2.47;;;1.00;;
10637;SDS011;47007;49.252;8.904;2022-10-17T13:41:08;2.13;;;1.13;;
10637;SDS011;47007;49.252;8.904;2022-10-17T13:43:58;6.72;;;4.72;;
10637;SDS011;47007;49.252;8.904;2022-10-17T13:46:28;4.22;;;1.45;;
10637;SDS011;47007;49.252;8.904;2022-10-17T13:49:12;2.75;;;1.38;;
10637;SDS011;47007;49.252;8.904;2022-10-17T13:51:45;2.67;;;1.05;;
10637;SDS011;47007;49.252;8.904;2022-10-17T13:54:33;3.42;;;1.00;;
10637;SDS011;47007;49.252;8.904;2022-10-17T13:57:16;2.45;;;1.13;;
10637;SDS011;47007;49.252;8.904;2022-10-17T14:00:00;3.28;;;1.20;;
10637;SDS011;47007;49.252;8.904;2022-10-17T14:02:39;4.35;;;1.70;;
10637;SDS011;47007;49.252;8.904;2022-10-17T14:10:37;4.93;;;1.20;;
10637;SDS011;47007;49.252;8.904;2022-10-17T14:13:05;3.03;;;1.23;;
10637;SDS011;47007;49.252;8.904;2022-10-17T14:15:41;2.83;;;1.10;;
10637;SDS011;47007;49.252;8.904;2022-10-17T14:18:16;2.67;;;1.45;;
10637;SDS011;47007;49.252;8.904;2022-10-17T14:20:46;3.42;;;1.52;;
10637;SDS011;47007;49.252;8.904;2022-10-17T14:23:36;2.80;;;1.25;;
10637;SDS011;47007;49.252;8.904;2022-10-17T14:26:11;2.50;;;1.50;;
10637;SDS011;47007;49.252;8.904;2022-10-17T14:28:41;1.63;;;1.27;;
10637;SDS011;47007;49.252;8.904;2022-10-17T14:33:46;3.03;;;2.38;;
10637;SDS011;47007;49.252;8.904;2022-10-17T14:36:16;1.67;;;1.20;;
10637;SDS011;47007;49.252;8.904;2022-10-17T14:38:45;5.28;;;1.27;;
10637;SDS011;47007;49.252;8.904;2022-10-17T14:41:19;3.95;;;1.50;;
10637;SDS011;47007;49.252;8.904;2022-10-17T14:44:29;2.60;;;1.75;;
10637;SDS011;47007;49.252;8.904;2022-10-17T14:46:59;3.33;;;1.38;;
10637;SDS011;47007;49.252;8.904;2022-10-17T14:49:50;4.80;;;1.90;;
10637;SDS011;47007;49.252;8.904;2022-10-17T14:52:27;3.95;;;1.85;;
10637;SDS011;47007;49.252;8.904;2022-10-17T14:54:57;3.72;;;1.30;;
10637;SDS011;47007;49.252;8.904;2022-10-17T14:59:54;2.75;;;1.45;;
10637;SDS011;47007;49.252;8.904;2022-10-17T15:02:26;2.97;;;1.35;;
10637;SDS011;47007;49.252;8.904;2022-10-17T15:04:56;3.75;;;2.03;;
10637;SDS011;47007;49.252;8.904;2022-10-17T15:07:23;5.63;;;1.55;;
10637;SDS011;47007;49.252;8.904;2022-10-17T15:09:50;2.13;;;1.50;;
10637;SDS011;47007;49.252;8.904;2022-10-17T15:12:20;2.42;;;1.60;;
10637;SDS011;47007;49.252;8.904;2022-10-17T15:14:51;6.57;;;1.83;;
10637;SDS011;47007;49.252;8.904;2022-10-17T15:17:23;3.90;;;1.60;;
10637;SDS011;47007;49.252;8.904;2022-10-17T15:19:54;3.53;;;1.33;;
10637;SDS011;47007;49.252;8.904;2022-10-17T15:22:22;2.40;;;1.40;;
10637;SDS011;47007;49.252;8.904;2022-10-17T15:24:49;2.47;;;1.25;;
10637;SDS011;47007;49.252;8.904;2022-10-17T15:27:17;3.95;;;1.60;;
10637;SDS011;47007;49.252;8.904;2022-10-17T15:29:46;2.15;;;1.30;;
10637;SDS011;47007;49.252;8.904;2022-10-17T15:32:14;5.43;;;1.67;;
10637;SDS011;47007;49.252;8.904;2022-10-17T15:34:41;5.50;;;1.80;;
10637;SDS011;47007;49.252;8.904;2022-10-17T15:37:18;2.78;;;1.85;;
10637;SDS011;47007;49.252;8.904;2022-10-17T15:39:48;2.67;;;1.42;;
10637;SDS011;47007;49.252;8.904;2022-10-17T15:42:19;3.60;;;1.77;;
10637;SDS011;47007;49.252;8.904;2022-10-17T15:44:48;3.58;;;1.65;;
10637;SDS011;47007;49.252;8.904;2022-10-17T15:47:29;4.30;;;1.60;;
10637;SDS011;47007;49.252;8.904;2022-10-17T15:50:00;4.78;;;1.55;;
10637;SDS011;47007;49.252;8.904;2022-10-17T15:52:28;3.65;;;1.88;;
10637;SDS011;47007;49.252;8.904;2022-10-17T15:54:55;2.70;;;1.63;;
10637;SDS011;47007;49.252;8.904;2022-10-17T15:57:28;3.78;;;2.17;;
10637;SDS011;47007;49.252;8.904;2022-10-17T15:59:57;2.13;;;1.50;;
10637;SDS011;47007;49.252;8.904;2022-10-17T16:02:26;4.18;;;2.03;;
10637;SDS011;47007;49.252;8.904;2022-10-17T16:04:53;2.22;;;1.73;;
10637;SDS011;47007;49.252;8.904;2022-10-17T16:07:20;4.30;;;1.95;;
10637;SDS011;47007;49.252;8.904;2022-10-17T16:09:47;1.73;;;1.63;;
10637;SDS011;47007;49.252;8.904;2022-10-17T16:12:18;2.67;;;1.60;;
10637;SDS011;47007;49.252;8.904;2022-10-17T16:14:51;2.38;;;1.70;;
10637;SDS011;47007;49.252;8.904;2022-10-17T16:17:18;4.72;;;1.63;;
10637;SDS011;47007;49.252;8.904;2022-10-17T16:19:45;4.55;;;1.80;;
10637;SDS011;47007;49.252;8.904;2022-10-17T16:22:17;3.45;;;1.90;;
10637;SDS011;47007;49.252;8.904;2022-10-17T16:24:58;3.72;;;2.00;;
10637;SDS011;47007;49.252;8.904;2022-10-17T16:27:32;2.42;;;1.65;;
10637;SDS011;47007;49.252;8.904;2022-10-17T16:29:59;3.53;;;2.10;;
10637;SDS011;47007;49.252;8.904;2022-10-17T16:32:26;4.70;;;1.77;;
10637;SDS011;47007;49.252;8.904;2022-10-17T16:34:53;6.45;;;2.97;;
10637;SDS011;47007;49.252;8.904;2022-10-17T16:37:20;3.83;;;3.40;;
10637;SDS011;47007;49.252;8.904;2022-10-17T16:39:46;3.35;;;3.00;;
10637;SDS011;47007;49.252;8.904;2022-10-17T16:42:18;5.18;;;3.40;;
10637;SDS011;47007;49.252;8.904;2022-10-17T16:44:46;9.80;;;3.85;;
10637;SDS011;47007;49.252;8.904;2022-10-17T16:47:13;3.97;;;3.47;;
10637;SDS011;47007;49.252;8.904;2022-10-17T16:49:40;3.67;;;2.78;;
10637;SDS011;47007;49.252;8.904;2022-10-17T16:52:11;7.60;;;2.80;;
10637;SDS011;47007;49.252;8.904;2022-10-17T16:54:37;4.45;;;3.00;;
10637;SDS011;47007;49.252;8.904;2022-10-17T16:57:04;4.10;;;3.08;;
10637;SDS011;47007;49.252;8.904;2022-10-17T16:59:31;4.05;;;2.63;;
10637;SDS011;47007;49.252;8.904;2022-10-17T17:01:58;7.60;;;3.63;;
10637;SDS011;47007;49.252;8.904;2022-10-17T17:04:24;7.45;;;4.03;;
10637;SDS011;47007;49.252;8.904;2022-10-17T17:06:51;6.10;;;3.70;;
10637;SDS011;47007;49.252;8.904;2022-10-17T17:09:18;4.03;;;3.10;;
10637;SDS011;47007;49.252;8.904;2022-10-17T17:11:45;3.70;;;3.40;;
10637;SDS011;47007;49.252;8.904;2022-10-17T17:14:12;7.25;;;4.45;;
10637;SDS011;47007;49.252;8.904;2022-10-17T17:16:39;5.18;;;4.50;;